NCAR-RAP Real-Time Weather Data

Output produced by METARs form (08 May 2021  02:13 UTC)
found at http://weather.rap.ucar.edu/surface/
 
KPUB 080153Z VRB03G23KT 10SM FEW120 28/M02 A2978 RMK AO2 PK WND 29040/0140 WSHFT 0131 SLP026 T02781017
KPUB 080151Z 34007G23KT 10SM FEW120 28/M02 A2978 RMK AO2 PK WND 29040/0140 WSHFT 0131
KPUB 080053Z 25009KT 10SM CLR 28/00 A2977 RMK AO2 SLP030 T02780000
KPUB 072353Z 22008KT 180V240 10SM CLR 31/M02 A2979 RMK AO2 SLP031 T03061022 10322 20272 56020
KPUB 072253Z 20011G22KT 10SM CLR 31/M01 A2980 RMK AO2 SLP037 T03111011
KPUB 072153Z 20009KT 10SM CLR 31/M03 A2983 RMK AO2 SLP043 T03061033
KPUB 072053Z AUTO VRB04KT 10SM CLR 32/M04 A2985 RMK AO2 SLP049 T03171039 56031
KPUB 071953Z 31010G19KT 10SM CLR 31/M04 A2989 RMK AO2 SLP059 T03111039
KPUB 071853Z 18009KT 10SM CLR 29/00 A2992 RMK AO2 SLP073 T02890000
KPUB 071753Z 13006KT 10SM CLR 27/01 A2996 RMK AO2 SLP088 T02720006 10272 20072 58024
KPUB 071653Z 23003KT 10SM CLR 24/02 A2999 RMK AO2 SLP101 T02390022
KPUB 071553Z 18003KT 10SM CLR 21/02 A3002 RMK AO2 SLP112 T02060022
KPUB 071453Z 23006KT 10SM CLR 17/03 A3004 RMK AO2 SLP125 T01670028 58006
KPUB 071353Z 29006KT 10SM CLR 13/03 A3006 RMK AO2 SLP132 T01330028
KPUB 071253Z 26007KT 10SM CLR 09/03 A3007 RMK AO2 SLP137 T00890033